Time;durP1;ratioP1;P1;durP2;ratioP2;P2;SDS_P1;SDS_P2;PMS_P1;PMS_P2;Temp;Humidity;BMP_temperature;BMP_pressure;BME280_temperature;BME280_humidity;BME280_pressure;Samples;Min_cycle;Max_cycle;Signal;HPM_P1;HPM_P2
2020/12/14 00:00:45;;;;;;;1.00;0.90;;;4.90;99.90;;;;;;4992986;28;20402;-74
2020/12/14 00:03:11;;;;;;;1.50;1.30;;;4.20;99.90;;;;;;4991885;28;20525;-75
2020/12/14 00:05:37;;;;;;;2.40;1.20;;;5.20;99.90;;;;;;4993417;28;20382;-74
2020/12/14 00:08:03;;;;;;;1.60;1.30;;;5.60;99.90;;;;;;4991751;28;20408;-74
2020/12/14 00:10:28;;;;;;;1.10;0.90;;;6.00;99.90;;;;;;4992827;28;20385;-74
2020/12/14 00:12:54;;;;;;;1.30;0.82;;;5.40;99.90;;;;;;4992211;28;20471;-76
2020/12/14 00:15:20;;;;;;;1.20;1.10;;;4.90;99.90;;;;;;4992107;28;20400;-75
2020/12/14 00:17:45;;;;;;;1.30;1.10;;;5.70;99.90;;;;;;4992413;28;20387;-74
2020/12/14 00:20:11;;;;;;;2.00;0.85;;;5.90;99.90;;;;;;4991694;28;20470;-75
2020/12/14 00:22:36;;;;;;;2.30;1.00;;;4.00;99.90;;;;;;4992423;28;20563;-74
2020/12/14 00:25:03;;;;;;;4.10;1.10;;;4.70;99.90;;;;;;4990302;28;20907;-74
2020/12/14 00:27:29;;;;;;;3.60;1.00;;;5.10;99.90;;;;;;4990742;28;20399;-75
2020/12/14 00:29:55;;;;;;;1.38;1.20;;;5.00;99.90;;;;;;4991944;28;20902;-76
2020/12/14 00:32:20;;;;;;;1.50;0.70;;;3.50;99.90;;;;;;5011001;28;20468;-76
2020/12/14 00:34:46;;;;;;;1.10;1.00;;;3.60;99.90;;;;;;5011272;28;20515;-73
2020/12/14 00:37:12;;;;;;;1.70;1.00;;;4.60;99.90;;;;;;5010711;28;20463;-75
2020/12/14 00:39:37;;;;;;;1.40;1.30;;;4.80;99.90;;;;;;5011981;28;20389;-75
2020/12/14 00:42:04;;;;;;;1.20;1.10;;;3.40;99.90;;;;;;5010998;28;20377;-75
2020/12/14 00:44:30;;;;;;;1.02;0.80;;;4.10;99.90;;;;;;5011680;28;20419;-75
2020/12/14 00:46:55;;;;;;;1.50;1.10;;;3.60;99.90;;;;;;5011052;28;20381;-76
2020/12/14 00:49:21;;;;;;;1.40;0.88;;;5.00;99.90;;;;;;5011236;28;20476;-75
2020/12/14 00:51:47;;;;;;;2.00;1.10;;;5.10;99.90;;;;;;5011717;28;20385;-75
2020/12/14 00:54:13;;;;;;;2.00;1.20;;;3.80;99.90;;;;;;5010704;28;20500;-74
2020/12/14 00:56:38;;;;;;;1.40;1.17;;;4.30;99.90;;;;;;5009845;28;20389;-74
2020/12/14 00:59:04;;;;;;;0.80;0.80;;;5.30;99.90;;;;;;5010620;28;20425;-75
2020/12/14 01:01:30;;;;;;;1.30;1.10;;;4.70;99.90;;;;;;5011338;28;20377;-75
2020/12/14 01:03:56;;;;;;;1.73;0.93;;;3.90;99.90;;;;;;5011006;28;20413;-76
2020/12/14 01:06:22;;;;;;;1.20;0.90;;;4.40;99.90;;;;;;5010682;28;20403;-75
2020/12/14 01:08:48;;;;;;;0.93;0.90;;;3.90;99.90;;;;;;5011290;28;20396;-75
2020/12/14 01:11:13;;;;;;;1.00;1.00;;;4.50;99.90;;;;;;5010863;28;20389;-75
2020/12/14 01:13:39;;;;;;;1.10;1.00;;;4.30;99.90;;;;;;5011034;28;20739;-75
2020/12/14 01:16:08;;;;;;;1.60;1.00;;;3.80;99.90;;;;;;5010367;28;20430;-75
2020/12/14 01:18:37;;;;;;;2.45;1.10;;;3.30;99.90;;;;;;5011060;28;20393;-76
2020/12/14 01:21:03;;;;;;;0.90;0.80;;;4.50;99.90;;;;;;5010395;28;20388;-75
2020/12/14 01:23:29;;;;;;;1.00;0.80;;;3.30;99.90;;;;;;5010627;28;20413;-74
2020/12/14 01:25:55;;;;;;;2.70;1.00;;;4.60;99.90;;;;;;5011122;28;20396;-74
2020/12/14 01:28:20;;;;;;;1.00;0.90;;;5.90;99.90;;;;;;5010049;28;20423;-74
2020/12/14 01:30:46;;;;;;;0.90;0.90;;;3.60;99.90;;;;;;5003761;28;20469;-74
2020/12/14 01:33:12;;;;;;;1.20;1.00;;;5.80;99.90;;;;;;4990498;28;20402;-74
2020/12/14 01:35:37;;;;;;;2.03;0.85;;;4.00;99.90;;;;;;4991276;28;20456;-74
2020/12/14 01:38:04;;;;;;;0.93;0.93;;;5.80;99.90;;;;;;4990696;28;20382;-74
2020/12/14 01:40:30;;;;;;;0.90;0.80;;;4.60;99.90;;;;;;4991259;28;20779;-74
2020/12/14 01:42:56;;;;;;;1.70;1.00;;;3.50;99.90;;;;;;4991253;28;20391;-74
2020/12/14 01:45:23;;;;;;;1.25;0.90;;;6.00;99.90;;;;;;4990062;28;20390;-74
2020/12/14 01:47:50;;;;;;;1.55;1.00;;;5.10;99.90;;;;;;4991099;28;20395;-74
2020/12/14 01:50:17;;;;;;;1.10;0.80;;;4.90;99.90;;;;;;4990387;28;20429;-75
2020/12/14 01:52:45;;;;;;;1.25;1.05;;;5.60;99.90;;;;;;4991152;28;20383;-74
2020/12/14 01:55:13;;;;;;;1.35;0.80;;;3.00;99.90;;;;;;4989136;28;20394;-75
2020/12/14 01:57:39;;;;;;;3.30;0.97;;;3.70;99.90;;;;;;4991115;28;20496;-74
2020/12/14 02:00:07;;;;;;;1.40;1.15;;;3.10;99.90;;;;;;4989557;28;20485;-75
2020/12/14 02:02:34;;;;;;;0.93;0.85;;;4.10;99.90;;;;;;4991346;28;20873;-74
2020/12/14 02:05:00;;;;;;;1.10;0.90;;;4.50;99.90;;;;;;4990676;28;20516;-76
2020/12/14 02:07:27;;;;;;;2.10;1.00;;;5.60;99.90;;;;;;4990778;28;20519;-76
2020/12/14 02:09:54;;;;;;;1.20;0.68;;;3.50;99.90;;;;;;4990896;28;20521;-75
2020/12/14 02:12:23;;;;;;;0.80;0.80;;;4.20;99.90;;;;;;4989945;28;20386;-75
2020/12/14 02:14:57;;;;;;;1.58;1.00;;;2.70;99.90;;;;;;4990470;28;20395;-73
2020/12/14 02:17:26;;;;;;;0.85;0.85;;;3.30;99.90;;;;;;4990419;28;20508;-75
2020/12/14 02:19:53;;;;;;;1.52;1.13;;;3.40;99.90;;;;;;4991030;28;20736;-73
2020/12/14 02:22:24;;;;;;;0.93;0.80;;;5.00;99.90;;;;;;4990124;28;20436;-75
2020/12/14 02:24:56;;;;;;;1.10;1.00;;;5.70;99.90;;;;;;4990459;28;20949;-75
2020/12/14 02:27:22;;;;;;;0.70;0.70;;;3.20;99.90;;;;;;4989807;28;20491;-75
2020/12/14 02:29:48;;;;;;;1.33;0.98;;;5.10;99.90;;;;;;4990788;28;20418;-75
2020/12/14 02:32:18;;;;;;;1.58;0.80;;;4.30;99.90;;;;;;5008880;28;20392;-75
2020/12/14 02:34:45;;;;;;;1.40;0.90;;;3.20;99.90;;;;;;5010318;28;20452;-75
2020/12/14 02:37:13;;;;;;;1.30;0.83;;;5.10;99.90;;;;;;5009079;28;20389;-75
2020/12/14 02:39:39;;;;;;;2.30;0.80;;;4.90;99.90;;;;;;5009024;28;20427;-75
2020/12/14 02:42:25;;;;;;;1.00;0.80;;;3.90;99.90;;;;;;5009779;28;20385;-76
2020/12/14 02:44:51;;;;;;;0.82;0.68;;;4.10;99.90;;;;;;5008615;28;20420;-75
2020/12/14 02:47:17;;;;;;;0.80;0.80;;;3.00;99.90;;;;;;5009415;28;20412;-75
2020/12/14 02:49:43;;;;;;;0.95;0.70;;;5.00;99.90;;;;;;5010283;28;20388;-74
2020/12/14 02:52:10;;;;;;;1.60;0.80;;;5.00;99.90;;;;;;5008947;28;20411;-75
2020/12/14 02:54:37;;;;;;;0.60;0.60;;;4.10;99.90;;;;;;5010152;28;20842;-75
2020/12/14 02:57:02;;;;;;;0.80;0.70;;;3.60;99.90;;;;;;5009921;28;20401;-77
2020/12/14 02:59:28;;;;;;;0.95;0.80;;;3.10;99.90;;;;;;5009295;28;20385;-74
2020/12/14 03:01:54;;;;;;;1.00;0.70;;;2.90;99.90;;;;;;5010069;28;20389;-75
2020/12/14 03:04:21;;;;;;;1.60;0.80;;;3.20;99.90;;;;;;5009198;28;20881;-74
2020/12/14 03:06:48;;;;;;;1.10;1.00;;;5.30;99.90;;;;;;5009900;28;20396;-74
2020/12/14 03:09:16;;;;;;;0.57;0.50;;;3.50;99.90;;;;;;5009278;28;20447;-75
2020/12/14 03:11:41;;;;;;;0.90;0.70;;;2.80;99.90;;;;;;5011965;28;20396;-75
2020/12/14 03:14:08;;;;;;;0.80;0.70;;;3.10;99.90;;;;;;5012622;28;20393;-76
2020/12/14 03:16:44;;;;;;;1.30;0.80;;;2.80;99.90;;;;;;5013533;28;20437;-75
2020/12/14 03:19:10;;;;;;;0.90;0.90;;;2.90;99.90;;;;;;5012610;28;20396;-75
2020/12/14 03:21:35;;;;;;;1.17;1.00;;;4.60;99.90;;;;;;5013181;28;20385;-75
2020/12/14 03:24:01;;;;;;;1.10;0.80;;;5.20;99.90;;;;;;5013577;28;20413;-74
2020/12/14 03:26:27;;;;;;;0.75;0.60;;;3.20;99.90;;;;;;5012394;28;20384;-74
2020/12/14 03:28:53;;;;;;;0.80;0.70;;;4.10;99.90;;;;;;5012821;28;20896;-73
2020/12/14 03:31:19;;;;;;;0.73;0.70;;;4.30;99.90;;;;;;5001089;28;20418;-74
2020/12/14 03:33:45;;;;;;;1.20;1.00;;;3.70;99.90;;;;;;4993433;28;20747;-75
2020/12/14 03:36:11;;;;;;;1.70;0.80;;;4.80;99.90;;;;;;4991597;28;20395;-75
2020/12/14 03:38:37;;;;;;;1.00;0.50;;;2.70;99.90;;;;;;4993467;28;20493;-75
2020/12/14 03:41:04;;;;;;;0.80;0.60;;;4.40;99.90;;;;;;4993332;28;20374;-75
2020/12/14 03:43:30;;;;;;;1.90;0.70;;;2.50;99.90;;;;;;4992564;28;20413;-74
2020/12/14 03:45:55;;;;;;;0.73;0.70;;;3.30;99.90;;;;;;4993345;28;20874;-74
2020/12/14 03:48:21;;;;;;;0.50;0.50;;;4.00;99.90;;;;;;4992414;28;20893;-74
2020/12/14 03:50:46;;;;;;;1.20;0.80;;;4.40;99.90;;;;;;4993239;28;20383;-76
2020/12/14 03:53:13;;;;;;;0.93;0.83;;;4.70;99.90;;;;;;4992516;28;20456;-75
2020/12/14 03:55:40;;;;;;;0.90;0.90;;;5.00;99.90;;;;;;4992892;28;20474;-74
2020/12/14 03:58:06;;;;;;;0.80;0.80;;;4.60;99.90;;;;;;4992749;28;20413;-76
2020/12/14 04:00:31;;;;;;;1.92;1.00;;;3.40;99.90;;;;;;4992432;28;20422;-75
2020/12/14 04:02:57;;;;;;;0.80;0.80;;;5.10;99.90;;;;;;4992635;28;20429;-73
2020/12/14 04:05:22;;;;;;;1.80;1.20;;;3.70;99.90;;;;;;4991884;28;20437;-74
2020/12/14 04:07:48;;;;;;;1.75;1.30;;;4.30;99.90;;;;;;4992615;28;20449;-74
2020/12/14 04:10:14;;;;;;;0.90;0.80;;;2.70;99.90;;;;;;4992106;28;20485;-74
2020/12/14 04:12:39;;;;;;;1.90;1.30;;;3.80;99.90;;;;;;4992871;28;20383;-73
2020/12/14 04:15:05;;;;;;;0.70;0.70;;;2.40;99.90;;;;;;4992646;28;20510;-73
2020/12/14 04:17:30;;;;;;;0.98;0.88;;;2.50;99.90;;;;;;4992000;28;20863;-74
2020/12/14 04:19:56;;;;;;;0.80;0.70;;;4.40;99.90;;;;;;4992654;28;20390;-74
2020/12/14 04:22:22;;;;;;;1.20;0.80;;;4.60;99.90;;;;;;4991232;28;20383;-74
2020/12/14 04:24:47;;;;;;;1.10;1.00;;;4.20;99.90;;;;;;4992426;28;20872;-74
2020/12/14 04:27:13;;;;;;;1.33;1.00;;;2.70;99.90;;;;;;4991645;28;20820;-74
2020/12/14 04:29:39;;;;;;;1.50;1.10;;;2.70;99.90;;;;;;4992143;28;20406;-74
2020/12/14 04:32:04;;;;;;;1.27;0.82;;;4.40;99.90;;;;;;5008670;28;20764;-74
2020/12/14 04:34:30;;;;;;;3.90;1.30;;;4.00;99.90;;;;;;5011193;28;20389;-73
2020/12/14 04:36:55;;;;;;;0.80;0.70;;;4.80;99.90;;;;;;5011697;28;20396;-73
2020/12/14 04:39:21;;;;;;;1.30;0.80;;;3.90;99.90;;;;;;5011175;28;20465;-73
2020/12/14 04:41:47;;;;;;;1.70;0.80;;;3.90;99.90;;;;;;5011822;28;20722;-74
2020/12/14 04:44:13;;;;;;;0.97;0.80;;;3.70;99.90;;;;;;5009898;28;20778;-76
2020/12/14 04:46:39;;;;;;;0.70;0.60;;;3.60;99.90;;;;;;5011768;28;20801;-73
2020/12/14 04:49:06;;;;;;;0.80;0.60;;;2.60;99.90;;;;;;5011860;28;20504;-73
2020/12/14 04:51:32;;;;;;;0.90;0.70;;;4.20;99.90;;;;;;5010816;28;20381;-73
2020/12/14 04:54:01;;;;;;;1.50;0.50;;;2.40;99.90;;;;;;5011642;28;20727;-74
2020/12/14 04:56:28;;;;;;;0.95;0.63;;;4.20;99.90;;;;;;5010494;28;20860;-74
2020/12/14 04:58:55;;;;;;;1.30;0.70;;;3.00;99.90;;;;;;5011714;28;20417;-73
2020/12/14 05:01:21;;;;;;;0.70;0.68;;;5.00;99.90;;;;;;5010434;28;20464;-75
2020/12/14 05:03:47;;;;;;;1.15;0.70;;;3.00;99.90;;;;;;5011951;28;20409;-74
2020/12/14 05:06:13;;;;;;;0.77;0.75;;;2.60;99.90;;;;;;5011029;28;20391;-77
2020/12/14 05:08:39;;;;;;;1.30;0.70;;;3.20;99.90;;;;;;5011640;28;20460;-75
2020/12/14 05:11:04;;;;;;;0.77;0.60;;;2.30;99.90;;;;;;5011523;28;20420;-74
2020/12/14 05:13:30;;;;;;;0.93;0.60;;;4.20;99.90;;;;;;5010899;28;20402;-75
2020/12/14 05:15:55;;;;;;;0.90;0.70;;;5.10;99.90;;;;;;5011258;28;20488;-74
2020/12/14 05:18:23;;;;;;;0.90;0.60;;;4.40;99.90;;;;;;5010889;28;20377;-74
2020/12/14 05:20:57;;;;;;;1.00;0.60;;;2.40;99.90;;;;;;5011613;28;20431;-75
2020/12/14 05:23:23;;;;;;;1.48;0.80;;;2.40;99.90;;;;;;5010509;28;20940;-75
2020/12/14 05:25:49;;;;;;;1.00;0.50;;;2.40;99.90;;;;;;5011585;28;20467;-75
2020/12/14 05:28:19;;;;;;;1.52;0.70;;;2.40;99.90;;;;;;5010500;28;20427;-76
2020/12/14 05:30:48;;;;;;;1.42;0.60;;;3.40;99.90;;;;;;5004596;28;20816;-76
2020/12/14 05:33:23;;;;;;;5.53;0.90;;;2.40;99.90;;;;;;4990736;28;20453;-75
2020/12/14 05:35:49;;;;;;;0.93;0.75;;;2.40;99.90;;;;;;4990705;28;20457;-75
2020/12/14 05:38:18;;;;;;;1.10;0.70;;;4.50;99.90;;;;;;4990894;28;20740;-76
2020/12/14 05:40:48;;;;;;;2.60;1.00;;;3.60;99.90;;;;;;4991720;28;20387;-75
2020/12/14 05:43:16;;;;;;;1.30;0.70;;;3.40;99.90;;;;;;4991237;28;20426;-76
2020/12/14 05:45:42;;;;;;;1.10;0.70;;;2.00;99.90;;;;;;4992421;28;20398;-75
2020/12/14 05:48:23;;;;;;;1.23;0.88;;;3.60;99.90;;;;;;5008073;28;20393;-74
2020/12/14 05:50:51;;;;;;;0.90;0.80;;;3.50;99.90;;;;;;5006256;28;20428;-77
2020/12/14 05:53:20;;;;;;;0.80;0.70;;;4.60;99.90;;;;;;4980672;28;20449;-74
2020/12/14 05:55:46;;;;;;;1.23;0.90;;;2.30;99.90;;;;;;5002294;28;20373;-75
2020/12/14 05:58:16;;;;;;;1.20;0.98;;;2.30;99.90;;;;;;5008266;28;20403;-75
2020/12/14 06:00:46;;;;;;;1.00;0.80;;;4.60;99.90;;;;;;5011077;28;20393;-74
2020/12/14 06:03:12;;;;;;;2.03;1.00;;;2.40;99.90;;;;;;5007674;28;20388;-74
2020/12/14 06:05:38;;;;;;;1.20;0.80;;;2.90;99.90;;;;;;5010590;28;20389;-74
2020/12/14 06:08:34;;;;;;;1.20;0.90;;;3.40;99.90;;;;;;5011240;28;20385;-74
2020/12/14 06:11:03;;;;;;;1.20;1.00;;;2.40;99.90;;;;;;5011022;28;20737;-76
2020/12/14 06:13:31;;;;;;;1.15;1.00;;;3.00;99.90;;;;;;5010501;28;20392;-73
2020/12/14 06:16:00;;;;;;;0.70;0.60;;;2.40;99.90;;;;;;5010776;28;20388;-73
2020/12/14 06:18:31;;;;;;;1.13;0.90;;;2.40;99.90;;;;;;5010128;28;20377;-74
2020/12/14 06:20:58;;;;;;;1.42;0.90;;;2.60;99.90;;;;;;5004020;28;20390;-73
2020/12/14 06:23:24;;;;;;;0.90;0.80;;;2.30;99.90;;;;;;4993586;28;20989;-76
2020/12/14 06:25:50;;;;;;;2.40;1.00;;;3.20;99.90;;;;;;5009982;28;20393;-74
2020/12/14 06:28:30;;;;;;;1.20;1.10;;;4.60;99.90;;;;;;5003798;28;20411;-76
2020/12/14 06:30:56;;;;;;;1.38;1.27;;;2.30;99.90;;;;;;4998788;28;20397;-75
2020/12/14 06:33:37;;;;;;;2.55;1.10;;;3.20;99.90;;;;;;5001088;28;20392;-73
2020/12/14 06:36:20;;;;;;;1.17;0.90;;;2.30;99.90;;;;;;5001807;28;20392;-74
2020/12/14 06:38:53;;;;;;;3.10;0.70;;;2.50;99.90;;;;;;5000256;28;20389;-74
2020/12/14 06:41:24;;;;;;;1.00;0.90;;;4.00;99.90;;;;;;4994082;28;20855;-74
2020/12/14 06:44:04;;;;;;;1.70;1.10;;;2.70;99.90;;;;;;4991517;28;20495;-74
2020/12/14 06:46:33;;;;;;;2.80;1.40;;;3.90;99.90;;;;;;4993879;28;20390;-73
2020/12/14 06:49:00;;;;;;;2.00;1.25;;;2.90;99.90;;;;;;5005543;28;20389;-73
2020/12/14 06:51:52;;;;;;;1.40;1.30;;;3.70;99.90;;;;;;5003804;28;20482;-74
2020/12/14 06:54:43;;;;;;;1.60;1.10;;;2.60;99.90;;;;;;4994900;28;20398;-75
2020/12/14 06:57:11;;;;;;;1.40;0.90;;;2.50;99.90;;;;;;5003131;28;20438;-74
2020/12/14 06:59:40;;;;;;;1.30;1.20;;;2.50;99.90;;;;;;5002408;28;20456;-75
2020/12/14 07:02:11;;;;;;;1.02;0.80;;;2.60;99.90;;;;;;5003137;28;20743;-75
2020/12/14 07:04:41;;;;;;;0.80;0.70;;;2.60;99.90;;;;;;5004694;28;20404;-74
2020/12/14 07:07:06;;;;;;;1.20;1.00;;;4.90;99.90;;;;;;5004226;28;20978;-74
2020/12/14 07:09:32;;;;;;;1.00;0.90;;;3.40;99.90;;;;;;5003454;28;20486;-74
2020/12/14 07:12:10;;;;;;;1.25;1.00;;;3.90;99.90;;;;;;5004556;28;20739;-74
2020/12/14 07:14:51;;;;;;;1.10;0.80;;;3.70;99.90;;;;;;4996907;28;20449;-74
2020/12/14 07:17:29;;;;;;;0.90;0.90;;;2.70;99.90;;;;;;4994722;28;20387;-74
2020/12/14 07:19:56;;;;;;;1.10;1.00;;;2.90;99.90;;;;;;4994609;28;20395;-75
2020/12/14 07:22:24;;;;;;;1.10;1.00;;;3.80;99.90;;;;;;4993875;28;20387;-75
2020/12/14 07:25:03;;;;;;;1.10;0.80;;;3.70;99.90;;;;;;4993278;28;20775;-77
2020/12/14 07:27:31;;;;;;;2.50;1.20;;;3.00;99.90;;;;;;5008954;28;20492;-76
2020/12/14 07:30:10;;;;;;;3.63;0.98;;;5.00;99.90;;;;;;5013010;28;20420;-77
2020/12/14 07:32:36;;;;;;;1.20;1.00;;;3.10;99.90;;;;;;4993693;28;20422;-76
2020/12/14 07:35:07;;;;;;;1.08;0.88;;;3.70;99.90;;;;;;4994314;28;20394;-77
2020/12/14 07:37:33;;;;;;;1.70;1.05;;;3.60;99.90;;;;;;4994027;28;20386;-75
2020/12/14 07:39:59;;;;;;;2.60;1.40;;;3.40;99.90;;;;;;4994235;28;20493;-75
2020/12/14 07:42:34;;;;;;;1.20;1.10;;;2.70;99.90;;;;;;4993636;28;20868;-75
2020/12/14 07:45:05;;;;;;;2.17;1.58;;;2.60;99.90;;;;;;4993819;28;20894;-76
2020/12/14 07:47:31;;;;;;;2.08;1.30;;;2.60;99.90;;;;;;4993512;28;20390;-75
2020/12/14 07:50:10;;;;;;;2.67;1.33;;;3.00;99.90;;;;;;4993848;28;20913;-76
2020/12/14 07:52:36;;;;;;;1.52;1.25;;;3.00;99.90;;;;;;4993447;28;20759;-76
2020/12/14 07:55:05;;;;;;;2.03;1.23;;;4.90;99.90;;;;;;4994043;28;20403;-76
2020/12/14 07:57:34;;;;;;;2.00;1.70;;;4.60;99.90;;;;;;4992234;28;20395;-75
2020/12/14 08:00:00;;;;;;;1.20;1.10;;;4.40;99.90;;;;;;4994004;28;20394;-75
2020/12/14 08:02:30;;;;;;;1.70;1.40;;;4.50;99.90;;;;;;4993180;28;20855;-75
2020/12/14 08:05:04;;;;;;;1.63;1.52;;;3.00;99.90;;;;;;4993682;28;20509;-77
2020/12/14 08:07:39;;;;;;;1.33;1.23;;;3.40;99.90;;;;;;4991779;28;20485;-77
2020/12/14 08:10:07;;;;;;;1.30;1.10;;;4.50;99.90;;;;;;4993505;28;20519;-75
2020/12/14 08:12:36;;;;;;;2.55;1.27;;;3.00;99.90;;;;;;5005041;28;20388;-75
2020/12/14 08:15:02;;;;;;;1.70;1.23;;;3.20;99.90;;;;;;5013125;28;20393;-74
2020/12/14 08:17:28;;;;;;;2.13;1.30;;;6.10;99.90;;;;;;5012002;28;20785;-75
2020/12/14 08:19:53;;;;;;;1.70;1.23;;;3.20;99.90;;;;;;5012857;28;20464;-75
2020/12/14 08:22:20;;;;;;;1.60;1.23;;;3.30;99.90;;;;;;5012376;28;20469;-75
2020/12/14 08:24:55;;;;;;;1.85;1.60;;;3.40;99.90;;;;;;5011909;28;20409;-75
2020/12/14 08:27:40;;;;;;;2.78;1.35;;;3.50;99.90;;;;;;5012566;28;20433;-74
2020/12/14 08:30:09;;;;;;;1.30;1.20;;;3.60;99.90;;;;;;5011165;28;20451;-73
2020/12/14 08:32:34;;;;;;;2.00;1.30;;;3.80;99.90;;;;;;4992649;28;20444;-74
2020/12/14 08:35:00;;;;;;;1.60;1.25;;;4.30;99.90;;;;;;4992959;28;20394;-75
2020/12/14 08:37:26;;;;;;;1.67;1.23;;;3.70;99.90;;;;;;4992498;28;20488;-75
2020/12/14 08:40:03;;;;;;;1.38;1.20;;;3.90;99.90;;;;;;4992978;28;20861;-75
2020/12/14 08:42:29;;;;;;;1.40;1.30;;;4.10;99.90;;;;;;4992195;28;20387;-75
2020/12/14 08:45:13;;;;;;;1.88;1.40;;;4.00;99.90;;;;;;4992893;28;20414;-75
2020/12/14 08:47:40;;;;;;;1.60;1.40;;;4.10;99.90;;;;;;4992083;28;20398;-75
2020/12/14 08:50:08;;;;;;;1.30;1.20;;;5.60;99.90;;;;;;4992680;28;20394;-75
2020/12/14 08:52:34;;;;;;;1.85;1.42;;;4.10;99.90;;;;;;4992226;28;20378;-75
2020/12/14 08:55:00;;;;;;;1.90;1.60;;;4.30;99.90;;;;;;4993072;28;20452;-75
2020/12/14 08:57:28;;;;;;;2.40;1.45;;;4.60;99.90;;;;;;4992027;28;20390;-75
2020/12/14 09:00:10;;;;;;;2.00;1.50;;;4.50;99.90;;;;;;4992559;28;20403;-75
2020/12/14 09:02:37;;;;;;;2.78;1.77;;;4.60;99.90;;;;;;4992412;28;20437;-74
2020/12/14 09:05:17;;;;;;;1.90;1.70;;;4.60;99.90;;;;;;4992526;28;20414;-75
2020/12/14 09:07:43;;;;;;;2.03;1.70;;;4.80;99.90;;;;;;4991664;28;20436;-75
2020/12/14 09:10:22;;;;;;;1.77;1.30;;;4.90;99.90;;;;;;4992655;28;20386;-75
2020/12/14 09:12:49;;;;;;;2.00;1.60;;;4.90;99.90;;;;;;4991798;28;20481;-75
2020/12/14 09:15:14;;;;;;;1.80;1.50;;;5.00;99.90;;;;;;4992602;28;20744;-75
2020/12/14 09:17:42;;;;;;;2.35;1.30;;;5.10;99.90;;;;;;4991519;28;20393;-73
2020/12/14 09:20:09;;;;;;;3.50;1.40;;;5.30;99.90;;;;;;4992341;28;20479;-74
2020/12/14 09:22:36;;;;;;;1.42;1.33;;;5.80;99.90;;;;;;4991833;28;20389;-74
2020/12/14 09:25:04;;;;;;;1.88;1.48;;;5.40;99.90;;;;;;4992251;28;20759;-74
2020/12/14 09:27:30;;;;;;;1.50;1.40;;;5.50;99.90;;;;;;4990332;28;20488;-74
2020/12/14 09:29:55;;;;;;;1.50;1.40;;;5.70;99.90;;;;;;4992207;28;20489;-74
2020/12/14 09:32:21;;;;;;;1.58;1.40;;;5.70;99.90;;;;;;5012079;28;20507;-74
2020/12/14 09:34:47;;;;;;;1.85;1.50;;;5.80;99.90;;;;;;5010931;28;20799;-74
2020/12/14 09:37:13;;;;;;;2.10;1.73;;;5.90;99.90;;;;;;5010529;28;20475;-74
2020/12/14 09:39:42;;;;;;;1.60;1.30;;;6.60;99.90;;;;;;5010764;28;20380;-74
2020/12/14 09:42:07;;;;;;;1.55;1.35;;;7.60;99.90;;;;;;5011662;28;20474;-75
2020/12/14 09:44:33;;;;;;;1.42;1.20;;;6.50;99.90;;;;;;5010883;28;20404;-75
2020/12/14 09:47:00;;;;;;;1.40;1.20;;;6.50;99.90;;;;;;5011439;28;20451;-75
2020/12/14 09:49:27;;;;;;;2.00;1.25;;;6.50;99.90;;;;;;5011408;28;20388;-76
2020/12/14 09:51:53;;;;;;;1.70;1.00;;;6.70;99.90;;;;;;5011288;28;20805;-75
2020/12/14 09:54:18;;;;;;;1.65;1.02;;;6.60;99.90;;;;;;5011439;28;20424;-75
2020/12/14 09:56:44;;;;;;;1.65;1.10;;;7.90;99.90;;;;;;5010984;28;20388;-75
2020/12/14 09:59:10;;;;;;;1.33;1.00;;;6.80;99.90;;;;;;5011138;28;20396;-75
2020/12/14 10:01:36;;;;;;;1.70;1.20;;;7.00;99.90;;;;;;5010860;28;20397;-75
2020/12/14 10:04:03;;;;;;;2.03;1.60;;;7.10;99.90;;;;;;5011505;28;20955;-75
2020/12/14 10:06:29;;;;;;;1.30;1.20;;;7.20;99.90;;;;;;5010551;28;20889;-73
2020/12/14 10:08:55;;;;;;;1.20;1.10;;;7.30;99.90;;;;;;5011181;28;20447;-75
2020/12/14 10:11:29;;;;;;;1.13;1.02;;;7.40;99.90;;;;;;5011454;28;20770;-74
2020/12/14 10:13:56;;;;;;;1.38;1.27;;;7.50;99.90;;;;;;5011323;28;20455;-75
2020/12/14 10:16:22;;;;;;;1.20;1.10;;;7.60;99.90;;;;;;5011097;28;20388;-75
2020/12/14 10:18:48;;;;;;;1.43;1.30;;;7.60;99.90;;;;;;5009378;28;20886;-75
2020/12/14 10:21:14;;;;;;;1.30;1.20;;;7.80;99.90;;;;;;5014378;28;20719;-75
2020/12/14 10:23:40;;;;;;;2.42;1.10;;;7.80;99.90;;;;;;5014503;28;20412;-75
2020/12/14 10:26:08;;;;;;;2.90;1.40;;;8.00;99.90;;;;;;5015205;28;20377;-75
2020/12/14 10:28:35;;;;;;;1.02;0.93;;;8.20;99.90;;;;;;5014059;28;20412;-74
2020/12/14 10:31:01;;;;;;;1.40;1.00;;;8.30;99.90;;;;;;5004805;28;20398;-74
2020/12/14 10:33:29;;;;;;;2.30;1.60;;;8.40;99.90;;;;;;4995422;28;20414;-74
2020/12/14 10:35:55;;;;;;;1.10;0.90;;;8.50;99.90;;;;;;4995466;28;20387;-75
2020/12/14 10:38:21;;;;;;;1.67;1.30;;;8.90;99.90;;;;;;4995370;28;20760;-74
2020/12/14 10:40:48;;;;;;;1.13;1.00;;;8.80;99.90;;;;;;4994764;28;20386;-75
2020/12/14 10:43:14;;;;;;;0.80;0.80;;;8.80;99.90;;;;;;4994983;28;20427;-75
2020/12/14 10:45:39;;;;;;;1.70;1.00;;;9.00;99.90;;;;;;4994700;28;20739;-75
2020/12/14 10:48:05;;;;;;;1.70;1.15;;;9.10;99.90;;;;;;4995284;28;20391;-75
2020/12/14 10:50:31;;;;;;;1.00;0.90;;;9.00;99.90;;;;;;4994287;28;20803;-75
2020/12/14 10:52:57;;;;;;;1.48;1.20;;;9.30;99.90;;;;;;4995231;28;20481;-75
2020/12/14 10:55:24;;;;;;;1.70;1.10;;;9.40;99.90;;;;;;4995048;28;20394;-75
2020/12/14 10:57:50;;;;;;;1.35;0.90;;;9.40;99.90;;;;;;4994135;28;20683;-75
2020/12/14 11:00:19;;;;;;;0.70;0.67;;;9.50;99.90;;;;;;4994632;28;20441;-75
2020/12/14 11:02:45;;;;;;;1.10;1.00;;;9.70;99.90;;;;;;4994277;28;20437;-74
2020/12/14 11:05:11;;;;;;;1.08;0.90;;;9.90;99.90;;;;;;4994728;28;20419;-75
2020/12/14 11:07:37;;;;;;;1.70;1.00;;;10.00;99.90;;;;;;4994221;28;20945;-75
2020/12/14 11:10:06;;;;;;;1.05;0.88;;;9.80;99.90;;;;;;4994661;28;20386;-75
2020/12/14 11:12:32;;;;;;;1.45;1.00;;;9.70;99.90;;;;;;4994403;28;20387;-77
2020/12/14 11:14:57;;;;;;;1.37;0.90;;;9.50;99.90;;;;;;4994641;28;20395;-76
2020/12/14 11:17:23;;;;;;;1.20;0.80;;;9.80;99.90;;;;;;4994749;28;20417;-76
2020/12/14 11:19:49;;;;;;;1.20;1.02;;;10.20;99.90;;;;;;4993897;28;20398;-76
2020/12/14 11:22:15;;;;;;;1.40;1.13;;;10.80;99.90;;;;;;4994556;28;20409;-76
2020/12/14 11:24:41;;;;;;;1.40;0.90;;;11.40;99.50;;;;;;4993809;28;20902;-74
2020/12/14 11:27:07;;;;;;;1.60;0.90;;;11.90;96.80;;;;;;4994427;28;20394;-75
2020/12/14 11:29:33;;;;;;;1.00;0.70;;;11.70;95.90;;;;;;4993787;28;20871;-76
2020/12/14 11:31:59;;;;;;;1.00;0.90;;;12.80;98.20;;;;;;5010840;28;20389;-75
2020/12/14 11:34:25;;;;;;;2.03;1.00;;;13.40;93.50;;;;;;5014124;28;20396;-75
2020/12/14 11:36:50;;;;;;;1.53;0.90;;;14.10;91.30;;;;;;5013288;28;20389;-75
2020/12/14 11:39:17;;;;;;;1.33;1.10;;;12.90;93.00;;;;;;5013887;28;20377;-75
2020/12/14 11:41:47;;;;;;;1.45;1.10;;;12.20;94.20;;;;;;5011917;28;20385;-75
2020/12/14 11:44:13;;;;;;;1.85;1.05;;;12.10;94.40;;;;;;5013653;28;20520;-74
2020/12/14 11:46:39;;;;;;;1.02;0.93;;;11.70;96.10;;;;;;5013034;28;20393;-75
2020/12/14 11:49:04;;;;;;;2.10;1.37;;;11.50;96.00;;;;;;5013785;28;20865;-75
2020/12/14 11:51:30;;;;;;;1.30;1.10;;;11.30;99.90;;;;;;5013577;28;20856;-74
2020/12/14 11:53:55;;;;;;;1.67;1.00;;;11.20;97.50;;;;;;5012935;28;20381;-74
2020/12/14 11:56:21;;;;;;;1.40;1.10;;;10.90;99.90;;;;;;5013362;28;20381;-74
2020/12/14 11:58:47;;;;;;;1.40;1.30;;;10.70;99.90;;;;;;5012033;28;20731;-75
2020/12/14 12:01:12;;;;;;;1.50;1.10;;;10.70;99.90;;;;;;5003162;28;20402;-74
2020/12/14 12:03:38;;;;;;;1.90;1.40;;;11.20;99.90;;;;;;5009770;28;20412;-75
2020/12/14 12:06:04;;;;;;;1.88;1.50;;;10.60;99.90;;;;;;5003623;28;20464;-74
2020/12/14 12:08:30;;;;;;;2.13;1.40;;;10.70;99.90;;;;;;5001872;28;20713;-74
2020/12/14 12:10:55;;;;;;;1.70;1.60;;;10.60;99.90;;;;;;4993979;28;20398;-75
2020/12/14 12:13:21;;;;;;;2.03;1.40;;;10.80;99.90;;;;;;4993469;28;20444;-74
2020/12/14 12:15:47;;;;;;;1.50;1.40;;;10.90;99.90;;;;;;4992349;28;20432;-74
2020/12/14 12:18:13;;;;;;;1.50;1.40;;;10.90;99.90;;;;;;4993357;28;20724;-75
2020/12/14 12:20:39;;;;;;;1.50;1.27;;;11.00;99.90;;;;;;4992452;28;20855;-76
2020/12/14 12:23:04;;;;;;;2.60;1.43;;;11.40;99.90;;;;;;4993106;28;20834;-71
2020/12/14 12:25:30;;;;;;;1.80;1.53;;;11.40;99.90;;;;;;4991640;28;20426;-72
2020/12/14 12:27:56;;;;;;;1.40;1.30;;;11.60;99.40;;;;;;4992222;28;20457;-74
2020/12/14 12:30:22;;;;;;;1.90;1.43;;;11.60;99.10;;;;;;4994447;28;20400;-74
2020/12/14 12:32:47;;;;;;;1.50;1.00;;;11.60;99.90;;;;;;5003434;28;20468;-74
2020/12/14 12:35:13;;;;;;;1.40;1.00;;;11.50;99.30;;;;;;5012576;28;20385;-75
2020/12/14 12:37:39;;;;;;;0.90;0.80;;;11.50;99.50;;;;;;5011881;28;20389;-75
2020/12/14 12:40:08;;;;;;;1.42;0.90;;;12.20;99.90;;;;;;5011800;28;20413;-74
2020/12/14 12:42:34;;;;;;;0.95;0.90;;;11.90;99.90;;;;;;5011338;28;21001;-74
2020/12/14 12:45:00;;;;;;;2.00;0.98;;;11.30;99.90;;;;;;5008819;28;20405;-74
2020/12/14 12:47:27;;;;;;;1.40;0.80;;;11.10;99.90;;;;;;4992475;28;20393;-74
2020/12/14 12:49:53;;;;;;;1.52;1.20;;;11.80;99.90;;;;;;4991717;28;20829;-74
2020/12/14 12:52:18;;;;;;;1.00;0.90;;;11.30;99.90;;;;;;4992511;28;20386;-75
2020/12/14 12:54:44;;;;;;;1.70;1.17;;;11.20;99.90;;;;;;4991897;28;20924;-75
2020/12/14 12:57:10;;;;;;;1.37;1.10;;;10.90;99.90;;;;;;4992205;28;20401;-75